createdAt,value
2023-01-09T00:00:05.767Z,6.87
2023-01-09T00:01:05.659Z,6.88
2023-01-09T00:02:05.706Z,6.88
2023-01-09T00:03:05.631Z,6.87
2023-01-09T00:04:05.736Z,6.88
2023-01-09T00:05:05.597Z,6.88
2023-01-09T00:06:05.598Z,6.88
2023-01-09T00:07:05.569Z,6.88
2023-01-09T00:08:05.590Z,6.92
2023-01-09T00:09:05.576Z,6.89
2023-01-09T00:10:05.554Z,6.89
2023-01-09T00:11:05.521Z,6.92
2023-01-09T00:12:05.556Z,6.92
2023-01-09T00:13:05.496Z,6.89
2023-01-09T00:14:05.513Z,6.88
2023-01-09T00:15:05.513Z,6.87
2023-01-09T00:16:05.473Z,6.87
2023-01-09T00:17:05.526Z,6.85
2023-01-09T00:18:05.478Z,6.85
2023-01-09T00:19:05.420Z,6.85
2023-01-09T00:20:05.439Z,6.87
2023-01-09T00:21:05.423Z,6.87
2023-01-09T00:22:05.407Z,6.85
2023-01-09T00:23:05.367Z,6.88
2023-01-09T00:24:05.386Z,6.87
2023-01-09T00:25:05.344Z,6.85
2023-01-09T00:26:05.378Z,6.87
2023-01-09T00:27:05.317Z,6.87
2023-01-09T00:28:05.355Z,6.87
2023-01-09T00:29:05.285Z,6.89
2023-01-09T00:30:05.315Z,6.88
2023-01-09T00:31:05.387Z,6.88
2023-01-09T00:32:05.303Z,6.88
2023-01-09T00:33:05.243Z,6.87
2023-01-09T00:34:05.266Z,6.87
2023-01-09T00:35:05.216Z,6.87
2023-01-09T00:36:05.213Z,6.87
2023-01-09T00:37:05.180Z,6.87
2023-01-09T00:38:05.231Z,6.88
2023-01-09T00:39:05.163Z,6.89
2023-01-09T00:40:05.188Z,6.87
2023-01-09T00:41:05.152Z,6.87
2023-01-09T00:42:05.178Z,6.89
2023-01-09T00:43:05.112Z,6.92
2023-01-09T00:44:05.148Z,6.92
2023-01-09T00:45:05.086Z,6.92
2023-01-09T00:46:05.152Z,6.93
2023-01-09T00:47:05.075Z,6.93
2023-01-09T00:48:05.080Z,6.95
2023-01-09T00:49:05.033Z,6.95
2023-01-09T00:50:05.039Z,6.93
2023-01-09T00:51:05.003Z,6.96
2023-01-09T00:52:05.024Z,6.97
2023-01-09T00:53:05.001Z,6.97
2023-01-09T00:54:04.996Z,6.99
2023-01-09T00:55:04.980Z,7.00
2023-01-09T00:56:04.980Z,6.97
2023-01-09T00:57:04.940Z,7.02
2023-01-09T00:58:04.942Z,7.02
2023-01-09T00:59:04.910Z,6.99
2023-01-09T01:00:04.911Z,7.00
2023-01-09T01:01:05.051Z,6.99
2023-01-09T01:02:05.019Z,7.02
2023-01-09T01:03:04.897Z,7.00
2023-01-09T01:04:04.881Z,7.02
2023-01-09T01:05:04.843Z,7.02
2023-01-09T01:06:04.857Z,7.02
2023-01-09T01:07:04.828Z,7.02
2023-01-09T01:08:04.806Z,7.02
2023-01-09T01:09:04.777Z,7.03
2023-01-09T01:10:04.790Z,7.02
2023-01-09T01:11:04.743Z,7.03
2023-01-09T01:12:04.780Z,7.03
2023-01-09T01:13:04.721Z,7.05
2023-01-09T01:14:04.745Z,7.02
2023-01-09T01:15:04.697Z,7.03
2023-01-09T01:16:04.701Z,7.05
2023-01-09T01:17:04.666Z,7.03
2023-01-09T01:18:04.698Z,7.00
2023-01-09T01:19:04.637Z,7.03
2023-01-09T01:20:04.672Z,7.02
2023-01-09T01:21:04.622Z,7.05
2023-01-09T01:22:04.663Z,7.03
2023-01-09T01:23:04.615Z,7.03
2023-01-09T01:24:04.607Z,7.05
2023-01-09T01:25:04.566Z,7.06
2023-01-09T01:26:04.582Z,7.11
2023-01-09T01:27:04.545Z,7.11
2023-01-09T01:28:04.584Z,7.13
2023-01-09T01:29:04.517Z,7.17
2023-01-09T01:30:04.521Z,7.20
2023-01-09T01:31:04.552Z,7.24
2023-01-09T01:32:04.505Z,7.25
2023-01-09T01:33:04.462Z,7.29
2023-01-09T01:34:04.507Z,7.31
2023-01-09T01:35:04.439Z,7.32
2023-01-09T01:36:04.464Z,7.36
2023-01-09T01:37:04.409Z,7.38
2023-01-09T01:38:04.424Z,7.42
2023-01-09T01:39:04.426Z,7.42
2023-01-09T01:40:04.394Z,7.43
2023-01-09T01:41:04.411Z,7.45
2023-01-09T01:42:04.380Z,7.48
2023-01-09T01:43:04.326Z,7.48
2023-01-09T01:44:04.339Z,7.50
2023-01-09T01:45:04.335Z,7.51
2023-01-09T01:46:04.385Z,7.53
2023-01-09T01:47:04.284Z,7.53
2023-01-09T01:48:04.286Z,7.51
2023-01-09T01:49:04.254Z,7.53
2023-01-09T01:50:04.294Z,7.50
2023-01-09T01:51:04.231Z,7.50
2023-01-09T01:52:04.250Z,7.50
2023-01-09T01:53:04.235Z,7.47
2023-01-09T01:54:04.201Z,7.48
2023-01-09T01:55:04.180Z,7.50
2023-01-09T01:56:04.185Z,7.50
2023-01-09T01:57:04.147Z,7.53
2023-01-09T01:58:04.161Z,7.53
2023-01-09T01:59:04.144Z,7.50
2023-01-09T02:00:04.139Z,7.51
2023-01-09T02:01:04.230Z,7.50
2023-01-09T02:02:04.283Z,7.50
2023-01-09T02:03:04.150Z,7.50
2023-01-09T02:04:04.094Z,7.51
2023-01-09T02:05:04.076Z,7.50
2023-01-09T02:06:04.065Z,7.48
2023-01-09T02:07:04.029Z,7.48
2023-01-09T02:08:04.022Z,7.50
2023-01-09T02:09:04.007Z,7.48
2023-01-09T02:10:04.019Z,7.50
2023-01-09T02:11:04.001Z,7.48
2023-01-09T02:12:03.971Z,7.45
2023-01-09T02:13:03.944Z,7.45
2023-01-09T02:14:03.973Z,7.45
2023-01-09T02:15:03.933Z,7.43
2023-01-09T02:16:03.998Z,7.43
2023-01-09T02:17:03.918Z,7.43
2023-01-09T02:18:03.908Z,7.43
2023-01-09T02:19:03.887Z,7.45
2023-01-09T02:20:03.875Z,7.45
2023-01-09T02:21:03.837Z,7.47
2023-01-09T02:22:03.847Z,7.47
2023-01-09T02:23:03.816Z,7.47
2023-01-09T02:24:03.835Z,7.47
2023-01-09T02:25:03.816Z,7.48
2023-01-09T02:26:03.804Z,7.48
2023-01-09T02:27:03.769Z,7.48
2023-01-09T02:28:03.761Z,7.50
2023-01-09T02:29:03.758Z,7.47
2023-01-09T02:30:03.748Z,7.50
2023-01-09T02:31:03.727Z,7.48
2023-01-09T02:32:03.738Z,7.50
2023-01-09T02:33:03.683Z,7.51
2023-01-09T02:34:03.689Z,7.51
2023-01-09T02:35:03.688Z,7.53
2023-01-09T02:36:03.678Z,7.51
2023-01-09T02:37:03.643Z,7.50
2023-01-09T02:38:03.656Z,7.48
2023-01-09T02:39:03.606Z,7.48
2023-01-09T02:40:03.656Z,7.47
2023-01-09T02:41:03.606Z,7.48
2023-01-09T02:42:03.594Z,7.47
2023-01-09T02:43:03.583Z,7.50
2023-01-09T02:44:03.572Z,7.48
2023-01-09T02:45:03.542Z,7.48
2023-01-09T02:46:03.642Z,7.48
2023-01-09T02:47:03.513Z,7.47
2023-01-09T02:48:03.552Z,7.47
2023-01-09T02:49:03.482Z,7.47
2023-01-09T02:50:03.510Z,7.43
2023-01-09T02:51:03.454Z,7.43
2023-01-09T02:52:03.471Z,7.45
2023-01-09T02:53:03.431Z,7.42
2023-01-09T02:54:03.470Z,7.42
2023-01-09T02:55:03.436Z,7.40
2023-01-09T02:56:03.403Z,7.42
2023-01-09T02:57:03.376Z,7.43
2023-01-09T02:58:03.398Z,7.45
2023-01-09T02:59:03.367Z,7.43
2023-01-09T03:00:03.392Z,7.43
2023-01-09T03:01:03.399Z,7.43
2023-01-09T03:02:03.585Z,7.40
2023-01-09T03:03:03.363Z,7.39
2023-01-09T03:04:03.341Z,7.40
2023-01-09T03:05:03.280Z,7.40
2023-01-09T03:06:03.290Z,7.39
2023-01-09T03:07:03.244Z,7.39
2023-01-09T03:08:03.258Z,7.40
2023-01-09T03:09:03.222Z,7.39
2023-01-09T03:10:03.283Z,7.38
2023-01-09T03:11:03.210Z,7.38
2023-01-09T03:12:03.229Z,7.36
2023-01-09T03:13:03.176Z,7.33
2023-01-09T03:14:03.187Z,7.33
2023-01-09T03:15:03.169Z,7.32
2023-01-09T03:16:03.252Z,7.32
2023-01-09T03:17:03.131Z,7.31
2023-01-09T03:18:03.133Z,7.31
2023-01-09T03:19:03.096Z,7.31
2023-01-09T03:20:03.098Z,7.28
2023-01-09T03:21:03.129Z,7.29
2023-01-09T03:22:03.063Z,7.25
2023-01-09T03:23:03.054Z,7.25
2023-01-09T03:24:03.056Z,7.25
2023-01-09T03:25:03.038Z,7.23
2023-01-09T03:26:03.044Z,7.21
2023-01-09T03:27:03.022Z,7.18
2023-01-09T03:28:02.985Z,7.17
2023-01-09T03:29:02.996Z,7.14
2023-01-09T03:30:02.985Z,7.11
2023-01-09T03:31:02.970Z,7.07
2023-01-09T03:32:02.928Z,7.06
2023-01-09T03:33:02.934Z,7.05
2023-01-09T03:34:02.914Z,7.02
2023-01-09T03:35:02.921Z,6.97
2023-01-09T03:36:02.911Z,6.96
2023-01-09T03:37:02.876Z,6.95
2023-01-09T03:38:02.844Z,6.93
2023-01-09T03:39:02.855Z,6.92
2023-01-09T03:40:02.820Z,6.89
2023-01-09T03:41:02.848Z,6.89
2023-01-09T03:42:02.836Z,6.88
2023-01-09T03:43:02.802Z,6.84
2023-01-09T03:44:02.794Z,6.84
2023-01-09T03:45:02.785Z,6.84
2023-01-09T03:46:02.787Z,6.81
2023-01-09T03:47:02.772Z,6.81
2023-01-09T03:48:02.770Z,6.82
2023-01-09T03:49:02.734Z,6.81
2023-01-09T03:50:09.736Z,6.81
2023-01-09T03:51:02.693Z,6.81
2023-01-09T03:52:02.683Z,6.79
2023-01-09T03:53:02.713Z,6.79
2023-01-09T03:54:02.650Z,6.79
2023-01-09T03:55:02.642Z,6.79
2023-01-09T03:56:02.611Z,6.78
2023-01-09T03:57:02.631Z,6.79
2023-01-09T03:58:02.585Z,6.77
2023-01-09T03:59:02.611Z,6.77
2023-01-09T04:00:02.560Z,6.78
2023-01-09T04:01:02.722Z,6.77
2023-01-09T04:02:04.064Z,6.77
2023-01-09T04:03:02.554Z,6.77
2023-01-09T04:04:02.596Z,6.75
2023-01-09T04:05:02.517Z,6.77
2023-01-09T04:06:02.478Z,6.75
2023-01-09T04:07:02.514Z,6.77
2023-01-09T04:08:02.458Z,6.77
2023-01-09T04:09:02.496Z,6.79
2023-01-09T04:10:02.426Z,6.79
2023-01-09T04:11:02.458Z,6.77
2023-01-09T04:12:02.404Z,6.75
2023-01-09T04:13:02.416Z,6.77
2023-01-09T04:14:02.408Z,6.77
2023-01-09T04:15:02.389Z,6.74
2023-01-09T04:16:02.449Z,6.77
2023-01-09T04:17:02.373Z,6.72
2023-01-09T04:18:02.327Z,6.70
2023-01-09T04:19:02.328Z,6.70
2023-01-09T04:20:02.305Z,6.66
2023-01-09T04:21:02.310Z,6.66
2023-01-09T04:22:02.299Z,6.64
2023-01-09T04:23:02.286Z,6.63
2023-01-09T04:24:02.250Z,6.63
2023-01-09T04:25:02.269Z,6.62
2023-01-09T04:26:02.223Z,6.60
2023-01-09T04:27:02.240Z,6.60
2023-01-09T04:28:02.221Z,6.60
2023-01-09T04:29:02.237Z,6.60
2023-01-09T04:30:02.170Z,6.60
2023-01-09T04:31:02.196Z,6.57
2023-01-09T04:32:02.153Z,6.57
2023-01-09T04:33:02.167Z,6.57
2023-01-09T04:34:02.112Z,6.57
2023-01-09T04:35:02.140Z,6.56
2023-01-09T04:36:02.086Z,6.54
2023-01-09T04:37:02.099Z,6.54
2023-01-09T04:38:02.070Z,6.54
2023-01-09T04:39:02.090Z,6.54
2023-01-09T04:40:02.051Z,6.54
2023-01-09T04:41:02.079Z,6.54
2023-01-09T04:42:02.009Z,6.52
2023-01-09T04:43:02.029Z,6.56
2023-01-09T04:44:01.984Z,6.56
2023-01-09T04:45:01.997Z,6.54
2023-01-09T04:46:02.115Z,6.54
2023-01-09T04:47:01.967Z,6.54
2023-01-09T04:48:01.938Z,6.56
2023-01-09T04:49:01.962Z,6.56
2023-01-09T04:50:01.908Z,6.54
2023-01-09T04:51:01.925Z,6.56
2023-01-09T04:52:01.901Z,6.52
2023-01-09T04:53:01.894Z,6.54
2023-01-09T04:54:01.872Z,6.54
2023-01-09T04:55:01.882Z,6.52
2023-01-09T04:56:01.821Z,6.51
2023-01-09T04:57:01.874Z,6.51
2023-01-09T04:58:01.818Z,6.48
2023-01-09T04:59:01.847Z,6.48
2023-01-09T05:00:01.775Z,6.45
2023-01-09T05:01:01.909Z,6.44
2023-01-09T05:02:01.925Z,6.42
2023-01-09T05:03:01.749Z,6.41
2023-01-09T05:04:01.738Z,6.41
2023-01-09T05:05:01.773Z,6.39
2023-01-09T05:06:01.696Z,6.38
2023-01-09T05:07:01.756Z,6.36
2023-01-09T05:08:01.672Z,6.36
2023-01-09T05:09:01.704Z,6.33
2023-01-09T05:10:01.670Z,6.31
2023-01-09T05:11:01.665Z,6.31
2023-01-09T05:12:01.952Z,6.30
2023-01-09T05:13:01.654Z,6.30
2023-01-09T05:14:01.593Z,6.30
2023-01-09T05:15:01.590Z,6.28
2023-01-09T05:16:01.575Z,6.28
2023-01-09T05:17:01.586Z,6.28
2023-01-09T05:18:01.586Z,6.30
2023-01-09T05:19:01.549Z,6.30
2023-01-09T05:20:01.510Z,6.31
2023-01-09T05:21:01.542Z,6.31
2023-01-09T05:22:01.493Z,6.31
2023-01-09T05:23:01.486Z,6.31
2023-01-09T05:24:01.518Z,6.30
2023-01-09T05:25:01.512Z,6.28
2023-01-09T05:26:01.441Z,6.28
2023-01-09T05:27:01.454Z,6.30
2023-01-09T05:28:01.473Z,6.30
2023-01-09T05:29:01.414Z,6.30
2023-01-09T05:30:01.411Z,6.26
2023-01-09T05:31:01.385Z,6.24
2023-01-09T05:32:01.354Z,6.20
2023-01-09T05:33:01.357Z,6.22
2023-01-09T05:34:01.329Z,6.19
2023-01-09T05:35:01.349Z,6.20
2023-01-09T05:36:01.322Z,6.22
2023-01-09T05:37:01.300Z,6.22
2023-01-09T05:38:01.301Z,6.24
2023-01-09T05:39:01.309Z,6.26
2023-01-09T05:40:01.315Z,6.27
2023-01-09T05:41:01.276Z,6.26
2023-01-09T05:42:01.244Z,6.24
2023-01-09T05:43:01.266Z,6.26
2023-01-09T05:44:01.239Z,6.22
2023-01-09T05:45:01.264Z,6.26
2023-01-09T05:46:01.218Z,6.22
2023-01-09T05:47:02.816Z,6.22
2023-01-09T05:48:01.202Z,6.20
2023-01-09T05:49:01.159Z,6.19
2023-01-09T05:50:01.129Z,6.20
2023-01-09T05:51:01.135Z,6.17
2023-01-09T05:52:01.103Z,6.17
2023-01-09T05:53:01.129Z,6.17
2023-01-09T05:54:01.099Z,6.19
2023-01-09T05:55:01.090Z,6.22
2023-01-09T05:56:01.048Z,6.24
2023-01-09T05:57:01.052Z,6.24
2023-01-09T05:58:01.038Z,6.27
2023-01-09T05:59:01.076Z,6.26
2023-01-09T06:00:01.041Z,6.26
2023-01-09T06:01:01.047Z,6.26
2023-01-09T06:02:01.025Z,6.28
2023-01-09T06:03:01.048Z,6.24
2023-01-09T06:04:00.947Z,6.20
2023-01-09T06:05:00.956Z,6.17
2023-01-09T06:06:00.936Z,6.19
2023-01-09T06:07:00.953Z,6.20
2023-01-09T06:08:00.886Z,6.20
2023-01-09T06:09:00.909Z,6.20
2023-01-09T06:10:00.882Z,6.28
2023-01-09T06:11:00.870Z,6.31
2023-01-09T06:12:00.868Z,6.31
2023-01-09T06:13:00.869Z,6.27
2023-01-09T06:14:00.814Z,6.26
2023-01-09T06:15:00.818Z,6.28
2023-01-09T06:16:00.821Z,6.26
2023-01-09T06:17:00.832Z,6.27
2023-01-09T06:18:00.761Z,6.27
2023-01-09T06:19:00.784Z,6.26
2023-01-09T06:20:00.755Z,6.24
2023-01-09T06:21:00.765Z,6.19
2023-01-09T06:22:00.726Z,6.14
2023-01-09T06:23:01.503Z,6.11
2023-01-09T06:24:00.759Z,6.09
2023-01-09T06:25:00.717Z,6.09
2023-01-09T06:26:00.653Z,6.07
2023-01-09T06:27:00.701Z,6.05
2023-01-09T06:28:02.513Z,6.05
2023-01-09T06:29:00.675Z,6.04
2023-01-09T06:30:00.633Z,6.07
2023-01-09T06:31:00.665Z,6.04
2023-01-09T06:32:00.575Z,6.05
2023-01-09T06:33:00.580Z,6.04
2023-01-09T06:34:00.556Z,6.07
2023-01-09T06:35:00.582Z,6.04
2023-01-09T06:36:00.547Z,6.05
2023-01-09T06:37:00.582Z,6.05
2023-01-09T06:38:00.512Z,6.08
2023-01-09T06:39:00.516Z,6.07
2023-01-09T06:40:00.492Z,6.05
2023-01-09T06:41:00.498Z,6.07
2023-01-09T06:42:00.475Z,6.07
2023-01-09T06:43:00.480Z,6.04
2023-01-09T06:44:00.375Z,6.04
2023-01-09T06:45:00.440Z,5.99
2023-01-09T06:46:00.392Z,6.01
2023-01-09T06:47:00.363Z,6.01
2023-01-09T06:48:00.421Z,5.98
2023-01-09T06:49:00.413Z,5.98
2023-01-09T06:50:00.317Z,5.98
2023-01-09T06:51:00.300Z,5.99
2023-01-09T06:52:00.287Z,5.97
2023-01-09T06:53:00.282Z,6.01
2023-01-09T06:54:00.275Z,6.02
2023-01-09T06:55:00.276Z,6.04
2023-01-09T06:56:00.230Z,6.01
2023-01-09T06:57:00.267Z,6.02
2023-01-09T06:58:00.195Z,6.05
2023-01-09T06:59:00.226Z,6.05
2023-01-09T07:00:00.220Z,6.05
2023-01-09T07:01:00.390Z,6.05
2023-01-09T07:02:00.255Z,6.05
2023-01-09T07:03:00.149Z,6.05
2023-01-09T07:04:00.205Z,6.04
2023-01-09T07:05:00.178Z,6.02
2023-01-09T07:06:00.111Z,6.09
2023-01-09T07:07:00.101Z,6.09
2023-01-09T07:08:00.078Z,6.08
2023-01-09T07:09:00.112Z,6.11
2023-01-09T07:10:00.042Z,6.11
2023-01-09T07:11:00.114Z,6.11
2023-01-09T07:12:00.030Z,6.08
2023-01-09T07:13:00.028Z,6.09
2023-01-09T07:14:00.007Z,6.09
2023-01-09T07:15:00.014Z,6.09
2023-01-09T07:15:59.985Z,6.09
2023-01-09T07:16:59.998Z,6.05
2023-01-09T07:17:59.988Z,6.04
2023-01-09T07:18:59.956Z,6.04
2023-01-09T07:19:59.917Z,6.01
2023-01-09T07:20:59.928Z,6.01
2023-01-09T07:21:59.925Z,5.99
2023-01-09T07:22:59.893Z,5.99
2023-01-09T07:23:59.918Z,5.98
2023-01-09T07:24:59.872Z,5.99
2023-01-09T07:25:59.841Z,5.98
2023-01-09T07:26:59.866Z,5.99
2023-01-09T07:27:59.841Z,5.99
2023-01-09T07:28:59.846Z,5.98
2023-01-09T07:29:59.790Z,5.98
2023-01-09T07:30:59.869Z,5.97
2023-01-09T07:31:59.764Z,5.97
2023-01-09T07:33:00.992Z,5.99
2023-01-09T07:33:59.757Z,6.01
2023-01-09T07:34:59.728Z,5.99
2023-01-09T07:35:59.726Z,5.99
2023-01-09T07:36:59.696Z,6.01
2023-01-09T07:37:59.739Z,6.02
2023-01-09T07:38:59.698Z,6.04
2023-01-09T07:39:59.691Z,6.05
2023-01-09T07:40:59.646Z,6.07
2023-01-09T07:41:59.653Z,6.08
2023-01-09T07:42:59.622Z,6.09
2023-01-09T07:43:59.623Z,6.11
2023-01-09T07:44:59.632Z,6.11
2023-01-09T07:45:59.654Z,6.12
2023-01-09T07:46:59.584Z,6.11
2023-01-09T07:47:59.588Z,6.12
2023-01-09T07:48:59.550Z,6.12
2023-01-09T07:49:59.580Z,6.14
2023-01-09T07:50:59.550Z,6.16
2023-01-09T07:51:59.546Z,6.12
2023-01-09T07:52:59.491Z,6.14
2023-01-09T07:53:59.517Z,6.12
2023-01-09T07:54:59.472Z,6.12
2023-01-09T07:55:59.478Z,6.14
2023-01-09T07:56:59.474Z,6.12
2023-01-09T07:57:59.449Z,6.12
2023-01-09T07:58:59.415Z,6.12
2023-01-09T07:59:59.448Z,6.12
2023-01-09T08:00:59.441Z,6.14
2023-01-09T08:01:59.510Z,6.12
2023-01-09T08:02:59.470Z,6.14
2023-01-09T08:03:59.374Z,6.16
2023-01-09T08:04:59.365Z,6.14
2023-01-09T08:05:59.364Z,6.14
2023-01-09T08:06:59.322Z,6.14
2023-01-09T08:07:59.359Z,6.16
2023-01-09T08:08:59.296Z,6.16
2023-01-09T08:09:59.299Z,6.16
2023-01-09T08:10:59.282Z,6.16
2023-01-09T08:11:59.293Z,6.17
2023-01-09T08:12:59.248Z,6.16
2023-01-09T08:13:59.282Z,6.20
2023-01-09T08:14:59.228Z,6.19
2023-01-09T08:15:59.313Z,6.20
2023-01-09T08:16:59.203Z,6.22
2023-01-09T08:17:59.213Z,6.22
2023-01-09T08:18:59.171Z,6.22
2023-01-09T08:19:59.222Z,6.22
2023-01-09T08:20:59.135Z,6.22
2023-01-09T08:21:59.171Z,6.24
2023-01-09T08:22:59.132Z,6.27
2023-01-09T08:23:59.134Z,6.27
2023-01-09T08:24:59.102Z,6.27
2023-01-09T08:25:59.154Z,6.28
2023-01-09T08:26:59.069Z,6.31
2023-01-09T08:27:59.085Z,6.31
2023-01-09T08:28:59.031Z,6.33
2023-01-09T08:29:59.039Z,6.35
2023-01-09T08:30:59.009Z,6.36
2023-01-09T08:31:59.059Z,6.38
2023-01-09T08:32:58.990Z,6.39
2023-01-09T08:33:59.012Z,6.41
2023-01-09T08:34:58.988Z,6.42
2023-01-09T08:35:59.026Z,6.42
2023-01-09T08:36:58.937Z,6.44
2023-01-09T08:37:58.990Z,6.44
2023-01-09T08:38:58.908Z,6.45
2023-01-09T08:39:58.928Z,6.45
2023-01-09T08:40:58.874Z,6.46
2023-01-09T08:41:58.942Z,6.46
2023-01-09T08:42:58.855Z,6.48
2023-01-09T08:43:58.885Z,6.49
2023-01-09T08:44:58.839Z,6.51
2023-01-09T08:45:58.842Z,6.51
2023-01-09T08:46:58.830Z,6.52
2023-01-09T08:47:58.823Z,6.56
2023-01-09T08:48:58.784Z,6.54
2023-01-09T08:49:58.781Z,6.57
2023-01-09T08:50:58.748Z,6.57
2023-01-09T08:51:58.767Z,6.60
2023-01-09T08:52:58.738Z,6.60
2023-01-09T08:53:58.745Z,6.63
2023-01-09T08:54:58.764Z,6.64
2023-01-09T08:55:58.703Z,6.63
2023-01-09T08:56:58.674Z,6.63
2023-01-09T08:57:58.705Z,6.64
2023-01-09T08:58:58.657Z,6.66
2023-01-09T08:59:58.746Z,6.67
2023-01-09T09:00:58.685Z,6.70
2023-01-09T09:01:58.861Z,6.70
2023-01-09T09:02:58.712Z,6.72
2023-01-09T09:03:58.627Z,6.72
2023-01-09T09:04:58.569Z,6.75
2023-01-09T09:05:58.575Z,6.77
2023-01-09T09:06:58.538Z,6.78
2023-01-09T09:07:58.571Z,6.81
2023-01-09T09:08:58.543Z,6.82
2023-01-09T09:09:58.532Z,6.81
2023-01-09T09:10:58.529Z,6.84
2023-01-09T09:11:58.521Z,6.82
2023-01-09T09:12:58.486Z,6.82
2023-01-09T09:13:58.484Z,6.82
2023-01-09T09:14:58.473Z,6.85
2023-01-09T09:15:58.502Z,6.87
2023-01-09T09:16:58.468Z,6.87
2023-01-09T09:17:58.552Z,6.88
2023-01-09T09:18:58.385Z,6.88
2023-01-09T09:19:58.399Z,6.87
2023-01-09T09:20:58.437Z,6.87
2023-01-09T09:21:58.422Z,6.87
2023-01-09T09:22:58.328Z,6.87
2023-01-09T09:23:58.339Z,6.87
2023-01-09T09:24:58.335Z,6.88
2023-01-09T09:25:58.472Z,6.85
2023-01-09T09:26:58.318Z,6.87
2023-01-09T09:27:58.312Z,6.85
2023-01-09T09:28:58.260Z,6.88
2023-01-09T09:29:58.330Z,6.88
2023-01-09T09:30:58.272Z,6.87
2023-01-09T09:32:00.758Z,6.87
2023-01-09T09:32:58.197Z,6.89
2023-01-09T09:33:58.288Z,6.89
2023-01-09T09:34:58.165Z,6.92
2023-01-09T09:35:58.203Z,6.93
2023-01-09T09:36:58.235Z,6.92
2023-01-09T09:37:58.183Z,6.93
2023-01-09T09:38:58.124Z,6.93
2023-01-09T09:40:01.445Z,6.95
2023-01-09T09:40:59.104Z,6.95
2023-01-09T09:41:58.162Z,6.95
2023-01-09T09:42:58.114Z,6.95
2023-01-09T09:43:58.077Z,6.96
2023-01-09T09:44:58.098Z,6.96
2023-01-09T09:45:58.111Z,6.97
2023-01-09T09:46:58.024Z,6.99
2023-01-09T09:47:58.048Z,6.97
2023-01-09T09:48:58.030Z,6.97
2023-01-09T09:49:58.068Z,7.00
2023-01-09T09:51:05.052Z,7.00
2023-01-09T09:51:57.972Z,7.02
2023-01-09T09:52:57.937Z,7.03
2023-01-09T09:53:57.965Z,7.06
2023-01-09T09:54:57.914Z,7.05
2023-01-09T09:55:57.943Z,7.06
2023-01-09T09:56:57.890Z,7.10
2023-01-09T09:57:57.889Z,7.14
2023-01-09T09:58:57.889Z,7.13
2023-01-09T09:59:57.879Z,7.14
2023-01-09T10:00:57.831Z,7.14
2023-01-09T10:01:57.856Z,7.17
2023-01-09T10:02:57.818Z,7.18
2023-01-09T10:03:57.888Z,7.18
2023-01-09T10:04:57.779Z,7.18
2023-01-09T10:05:57.811Z,7.18
2023-01-09T10:06:57.757Z,7.20
2023-01-09T10:08:01.280Z,7.21
2023-01-09T10:08:58.757Z,7.25
2023-01-09T10:09:57.771Z,7.24
2023-01-09T10:10:57.707Z,7.29
2023-01-09T10:11:57.728Z,7.29
2023-01-09T10:12:57.675Z,7.33
2023-01-09T10:13:57.706Z,7.36
2023-01-09T10:14:57.666Z,7.39
2023-01-09T10:15:57.702Z,7.39
2023-01-09T10:16:57.634Z,7.36
2023-01-09T10:17:57.636Z,7.39
2023-01-09T10:18:57.600Z,7.39
2023-01-09T10:19:57.649Z,7.42
2023-01-09T10:20:57.579Z,7.43
2023-01-09T10:21:57.647Z,7.45
2023-01-09T10:22:57.548Z,7.45
2023-01-09T10:23:57.565Z,7.45
2023-01-09T10:24:57.554Z,7.50
2023-01-09T10:25:57.566Z,7.47
2023-01-09T10:26:57.492Z,7.50
2023-01-09T10:27:57.496Z,7.48
2023-01-09T10:28:57.467Z,7.51
2023-01-09T10:29:57.467Z,7.51
2023-01-09T10:30:57.446Z,7.51
2023-01-09T10:31:57.501Z,7.54
2023-01-09T10:32:57.414Z,7.57
2023-01-09T10:33:57.424Z,7.60
2023-01-09T10:34:57.417Z,7.58
2023-01-09T10:35:57.437Z,7.63
2023-01-09T10:36:57.428Z,7.63
2023-01-09T10:37:57.404Z,7.66
2023-01-09T10:38:57.340Z,7.66
2023-01-09T10:39:57.371Z,7.70
2023-01-09T10:41:01.492Z,7.69
2023-01-09T10:41:57.397Z,7.67
2023-01-09T10:42:57.310Z,7.66
2023-01-09T10:43:57.298Z,7.61
2023-01-09T10:44:57.268Z,7.69
2023-01-09T10:45:57.278Z,7.69
2023-01-09T10:46:57.313Z,7.70
2023-01-09T10:47:57.286Z,7.72
2023-01-09T10:48:57.217Z,7.69
2023-01-09T10:49:57.238Z,7.70
2023-01-09T10:50:57.193Z,7.67
2023-01-09T10:51:57.198Z,7.69
2023-01-09T10:52:57.193Z,7.73
2023-01-09T10:53:57.165Z,7.75
2023-01-09T10:54:57.141Z,7.75
2023-01-09T10:55:57.146Z,7.73
2023-01-09T10:56:57.109Z,7.70
2023-01-09T10:57:57.199Z,7.72
2023-01-09T10:58:57.079Z,7.75
2023-01-09T10:59:57.126Z,7.75
2023-01-09T11:00:57.062Z,7.76
2023-01-09T11:01:57.101Z,7.75
2023-01-09T11:02:57.028Z,7.75
2023-01-09T11:03:57.067Z,7.76
2023-01-09T11:04:57.021Z,7.79
2023-01-09T11:05:57.018Z,7.82
2023-01-09T11:06:56.977Z,7.82
2023-01-09T11:07:57.003Z,7.80
2023-01-09T11:08:56.993Z,7.82
2023-01-09T11:09:56.966Z,7.79
2023-01-09T11:10:56.930Z,7.77
2023-01-09T11:11:56.935Z,7.79
2023-01-09T11:12:56.917Z,7.77
2023-01-09T11:13:56.943Z,7.77
2023-01-09T11:14:56.880Z,7.77
2023-01-09T11:15:56.898Z,7.80
2023-01-09T11:16:56.851Z,7.87
2023-01-09T11:17:56.863Z,7.93
2023-01-09T11:18:56.821Z,7.97
2023-01-09T11:19:56.870Z,7.98
2023-01-09T11:20:56.829Z,8.01
2023-01-09T11:21:56.832Z,8.01
2023-01-09T11:22:56.768Z,8.00
2023-01-09T11:23:56.792Z,8.01
2023-01-09T11:24:56.740Z,8.05
2023-01-09T11:25:56.782Z,8.06
2023-01-09T11:26:56.721Z,8.09
2023-01-09T11:27:56.736Z,8.09
2023-01-09T11:28:56.696Z,8.01
2023-01-09T11:29:56.755Z,7.98
2023-01-09T11:30:56.662Z,7.93
2023-01-09T11:31:56.716Z,7.90
2023-01-09T11:32:56.658Z,7.85
2023-01-09T11:33:56.663Z,7.85
2023-01-09T11:34:56.616Z,7.85
2023-01-09T11:35:56.641Z,7.88
2023-01-09T11:36:56.631Z,7.90
2023-01-09T11:37:56.629Z,7.90
2023-01-09T11:38:56.587Z,7.88
2023-01-09T11:39:56.631Z,7.88
2023-01-09T11:40:56.553Z,7.87
2023-01-09T11:41:56.537Z,7.85
2023-01-09T11:42:56.536Z,7.83
2023-01-09T11:43:56.533Z,7.88
2023-01-09T11:44:56.486Z,7.87
2023-01-09T11:46:01.159Z,7.91
2023-01-09T11:46:57.507Z,7.93
2023-01-09T11:47:56.452Z,7.94
2023-01-09T11:48:56.465Z,7.98
2023-01-09T11:49:56.415Z,7.98
2023-01-09T11:50:56.455Z,7.98
2023-01-09T11:51:56.394Z,7.98
2023-01-09T11:52:56.423Z,7.98
2023-01-09T11:53:56.391Z,7.97
2023-01-09T11:54:56.371Z,7.94
2023-01-09T11:55:56.344Z,7.91
2023-01-09T11:56:56.391Z,7.87
2023-01-09T11:57:56.318Z,7.85
2023-01-09T11:58:56.347Z,7.83
2023-01-09T11:59:56.291Z,7.76
2023-01-09T12:00:56.289Z,7.70
2023-01-09T12:01:56.294Z,7.67
2023-01-09T12:02:56.371Z,7.70
2023-01-09T12:03:56.243Z,7.69
2023-01-09T12:04:56.315Z,7.70
2023-01-09T12:05:56.222Z,7.72
2023-01-09T12:06:56.258Z,7.73
2023-01-09T12:07:56.355Z,7.73
2023-01-09T12:08:56.195Z,7.79
2023-01-09T12:09:56.169Z,7.82
2023-01-09T12:10:56.174Z,7.85
2023-01-09T12:11:56.185Z,7.88
2023-01-09T12:12:56.135Z,7.88
2023-01-09T12:13:56.103Z,7.88
2023-01-09T12:14:56.133Z,7.91
2023-01-09T12:15:56.081Z,7.91
2023-01-09T12:16:56.105Z,7.94
2023-01-09T12:17:56.088Z,7.93
2023-01-09T12:18:56.084Z,8.00
2023-01-09T12:19:56.058Z,8.06
2023-01-09T12:20:56.049Z,8.13
2023-01-09T12:21:56.041Z,8.15
2023-01-09T12:22:56.051Z,8.19
2023-01-09T12:23:55.978Z,8.30
2023-01-09T12:24:56.003Z,8.38
2023-01-09T12:25:55.956Z,8.46
2023-01-09T12:26:55.958Z,8.49
2023-01-09T12:27:55.947Z,8.48
2023-01-09T12:28:55.945Z,8.48
2023-01-09T12:29:55.903Z,8.45
2023-01-09T12:30:55.934Z,8.41
2023-01-09T12:31:55.973Z,8.33
2023-01-09T12:32:55.882Z,8.28
2023-01-09T12:33:55.858Z,8.26
2023-01-09T12:34:55.861Z,8.16
2023-01-09T12:35:55.823Z,8.08
2023-01-09T12:36:55.903Z,8.01
2023-01-09T12:37:55.820Z,7.98
2023-01-09T12:38:55.812Z,7.97
2023-01-09T12:39:55.770Z,7.93
2023-01-09T12:40:55.777Z,7.91
2023-01-09T12:41:55.751Z,7.83
2023-01-09T12:42:55.790Z,7.73
2023-01-09T12:43:55.752Z,7.61
2023-01-09T12:44:55.746Z,7.61
2023-01-09T12:45:55.774Z,7.60
2023-01-09T12:46:55.697Z,7.60
2023-01-09T12:47:55.706Z,7.58
2023-01-09T12:48:55.704Z,7.61
2023-01-09T12:49:55.645Z,7.70
2023-01-09T12:50:55.644Z,7.69
2023-01-09T12:51:55.620Z,7.67
2023-01-09T12:52:55.654Z,7.67
2023-01-09T12:53:55.614Z,7.67
2023-01-09T12:54:55.622Z,7.70
2023-01-09T12:55:55.570Z,7.69
2023-01-09T12:56:55.581Z,7.72
2023-01-09T12:57:55.539Z,7.76
2023-01-09T12:58:55.600Z,7.79
2023-01-09T12:59:55.535Z,7.75
2023-01-09T13:00:55.572Z,7.73
2023-01-09T13:01:55.527Z,7.76
2023-01-09T13:03:07.239Z,7.73
2023-01-09T13:03:56.519Z,7.70
2023-01-09T13:04:55.511Z,7.67
2023-01-09T13:05:55.436Z,7.73
2023-01-09T13:06:55.511Z,7.73
2023-01-09T13:07:55.415Z,7.75
2023-01-09T13:08:55.486Z,7.79
2023-01-09T13:09:55.377Z,7.82
2023-01-09T13:10:55.385Z,7.82
2023-01-09T13:11:55.361Z,7.79
2023-01-09T13:12:55.362Z,7.79
2023-01-09T13:13:55.342Z,7.79
2023-01-09T13:14:55.384Z,7.76
2023-01-09T13:15:55.314Z,7.67
2023-01-09T13:16:55.329Z,7.61
2023-01-09T13:17:55.280Z,7.53